createdAt,value
2023-05-06T00:02:08.536Z,101328.72
2023-05-06T00:07:05.723Z,101300.75
2023-05-06T00:12:02.873Z,101317.97
2023-05-06T00:17:00.140Z,101311.16
2023-05-06T00:21:58.960Z,101307.56
2023-05-06T00:26:58.843Z,101310.97
2023-05-06T00:31:55.953Z,101360.91
2023-05-06T00:36:53.031Z,101320.31
2023-05-06T00:41:50.890Z,101302.88
2023-05-06T00:46:47.989Z,101296.09
2023-05-06T00:51:45.141Z,101357.31
2023-05-06T00:56:42.936Z,101298.97
2023-05-06T01:01:41.013Z,101347.31
2023-05-06T01:06:45.197Z,101318.84
2023-05-06T01:11:49.861Z,101292.25
2023-05-06T01:16:53.759Z,101372.50
2023-05-06T01:21:54.586Z,101368.66
2023-05-06T01:26:52.230Z,101278.06
2023-05-06T01:31:52.299Z,101302.13
2023-05-06T01:37:04.665Z,101337.63
2023-05-06T01:42:03.425Z,101364.84
2023-05-06T01:47:01.787Z,101331.78
2023-05-06T01:51:58.732Z,101359.94
2023-05-06T01:56:55.666Z,101326.97
2023-05-06T02:01:53.400Z,101333.91
2023-05-06T02:06:50.351Z,101338.38
2023-05-06T02:11:48.679Z,101275.53
2023-05-06T02:16:46.077Z,101273.78
2023-05-06T02:21:44.848Z,101269.75
2023-05-06T02:26:41.875Z,101256.44
2023-05-06T02:31:38.954Z,101274.06
2023-05-06T02:36:37.945Z,101234.59
2023-05-06T02:41:35.727Z,101259.78
2023-05-06T02:46:34.824Z,101257.69
2023-05-06T02:51:34.242Z,101259.91
2023-05-06T02:56:31.295Z,101313.22
2023-05-06T03:01:29.228Z,101243.59
2023-05-06T03:06:26.547Z,101300.66
2023-05-06T03:11:23.869Z,101343.13
2023-05-06T03:16:20.995Z,101253.28
2023-05-06T03:21:25.632Z,101326.75
2023-05-06T03:26:23.619Z,101371.44
2023-05-06T03:31:20.924Z,101310.19
2023-05-06T03:36:24.642Z,101305.56
2023-05-06T03:41:24.720Z,101394.22
2023-05-06T03:46:22.356Z,101330.34
2023-05-06T03:51:19.987Z,101322.22
2023-05-06T03:56:23.548Z,101382.22
2023-05-06T04:01:23.787Z,101340.66
2023-05-06T04:06:22.491Z,101390.84
2023-05-06T04:11:20.364Z,101338.94
2023-05-06T04:16:23.208Z,101336.25
2023-05-06T04:21:23.196Z,101400.25
2023-05-06T04:26:29.668Z,101376.72
2023-05-06T04:31:29.261Z,101335.06
2023-05-06T04:36:40.020Z,101345.91
2023-05-06T04:41:56.615Z,101425.41
2023-05-06T04:47:00.733Z,101428.53
2023-05-06T04:51:58.770Z,101354.72
2023-05-06T04:57:01.722Z,101404.69
2023-05-06T05:01:59.870Z,101434.66
2023-05-06T05:06:58.074Z,101365.78
2023-05-06T05:11:55.848Z,101376.50
2023-05-06T05:16:57.603Z,101408.72
2023-05-06T05:21:57.330Z,101378.47
2023-05-06T05:26:58.989Z,101415.72
2023-05-06T05:32:00.609Z,101359.59
2023-05-06T05:37:01.631Z,101381.94
2023-05-06T05:41:59.898Z,101394.03
2023-05-06T05:46:58.417Z,101462.69
2023-05-06T05:51:57.736Z,101398.56
2023-05-06T05:56:59.627Z,101461.38
2023-05-06T06:02:01.973Z,101421.06
2023-05-06T06:07:01.347Z,101446.81
2023-05-06T06:12:07.186Z,101411.69
2023-05-06T06:17:10.202Z,101409.16
2023-05-06T06:22:07.409Z,101430.19
2023-05-06T06:27:07.805Z,101406.50
2023-05-06T06:32:06.640Z,101409.31
2023-05-06T06:37:07.855Z,101457.56
2023-05-06T06:42:06.385Z,101411.25
2023-05-06T06:47:09.548Z,101445.44
2023-05-06T06:52:13.555Z,101453.22
2023-05-06T06:57:11.198Z,101453.88
2023-05-06T07:02:10.792Z,101403.13
2023-05-06T07:07:08.801Z,101476.47
2023-05-06T07:12:06.518Z,101451.78
2023-05-06T07:17:03.935Z,101423.81
2023-05-06T07:22:02.433Z,101477.19
2023-05-06T07:27:03.690Z,101415.91
2023-05-06T07:32:00.841Z,101478.69
2023-05-06T07:37:04.039Z,101466.38
2023-05-06T07:42:01.994Z,101480.38
2023-05-06T07:46:59.269Z,101480.19
2023-05-06T07:51:58.660Z,101461.38
2023-05-06T07:56:58.440Z,101420.06
2023-05-06T08:02:05.530Z,101454.38
2023-05-06T08:07:06.431Z,101418.94
2023-05-06T08:12:21.825Z,101454.91
2023-05-06T08:17:35.501Z,101479.22
2023-05-06T08:22:42.083Z,101387.69
2023-05-06T08:28:13.828Z,101425.78
2023-05-06T08:33:42.427Z,101428.97
2023-05-06T08:38:56.411Z,101478.44
2023-05-06T08:43:59.192Z,101479.38
2023-05-06T08:54:57.974Z,101466.91
2023-05-06T09:00:07.110Z,101424.03
2023-05-06T09:05:11.862Z,101406.88
2023-05-06T09:10:22.861Z,101418.94
2023-05-06T09:15:24.743Z,101449.91
2023-05-06T09:20:23.194Z,101466.88
2023-05-06T09:25:26.951Z,101405.53
2023-05-06T09:31:00.208Z,101437.72
2023-05-06T09:36:36.506Z,101402.50
2023-05-06T09:41:37.837Z,101391.16
2023-05-06T09:46:39.082Z,101374.69
2023-05-06T09:51:47.589Z,101403.16
2023-05-06T09:56:56.313Z,101377.69
2023-05-06T10:02:08.269Z,101426.25
2023-05-06T10:07:12.544Z,101432.34
2023-05-06T10:12:10.804Z,101421.28
2023-05-06T10:17:21.056Z,101412.00
2023-05-06T10:22:31.186Z,101379.81
2023-05-06T10:27:36.176Z,101409.41
2023-05-06T10:32:33.296Z,101413.31
2023-05-06T10:37:36.727Z,101341.44
2023-05-06T10:42:34.755Z,101348.31
2023-05-06T10:48:11.102Z,101397.22
2023-05-06T10:53:20.252Z,101358.13
2023-05-06T10:58:22.665Z,101333.31
2023-05-06T11:03:25.631Z,101405.53
2023-05-06T11:08:33.335Z,101359.81
2023-05-06T11:13:39.932Z,101331.75
2023-05-06T11:18:49.412Z,101344.44
2023-05-06T11:24:16.678Z,101424.53
2023-05-06T11:29:17.249Z,101399.56
2023-05-06T11:34:21.526Z,101358.22
2023-05-06T11:39:19.552Z,101376.06
2023-05-06T11:44:32.364Z,101421.00
2023-05-06T11:49:58.716Z,101428.69
2023-05-06T11:54:56.798Z,101365.91
2023-05-06T11:59:57.043Z,101358.09
2023-05-06T12:04:54.333Z,101337.97
2023-05-06T12:09:54.993Z,101387.75
2023-05-06T12:15:06.915Z,101410.84
2023-05-06T12:20:09.759Z,101334.16
2023-05-06T12:25:14.422Z,101405.38
2023-05-06T12:30:13.678Z,101340.50
2023-05-06T12:35:26.163Z,101392.41
2023-05-06T12:40:32.543Z,101309.09
2023-05-06T12:45:33.217Z,101362.81
2023-05-06T12:50:39.681Z,101357.53
2023-05-06T12:55:51.691Z,101358.28
2023-05-06T13:00:51.953Z,101363.53
2023-05-06T13:05:51.431Z,101355.78
2023-05-06T13:10:48.612Z,101301.38
2023-05-06T13:15:56.639Z,101367.13
2023-05-06T13:20:57.811Z,101297.50
2023-05-06T13:26:04.831Z,101335.84
2023-05-06T13:31:08.204Z,101274.94
2023-05-06T13:36:09.566Z,101337.63
2023-05-06T13:41:20.990Z,101288.56
2023-05-06T13:46:38.624Z,101304.66
2023-05-06T13:51:41.615Z,101309.13
2023-05-06T13:56:44.330Z,101338.50
2023-05-06T14:01:44.250Z,101278.25
2023-05-06T14:06:43.566Z,101336.78
2023-05-06T14:11:42.025Z,101250.25
2023-05-06T14:16:44.092Z,101303.38
2023-05-06T14:21:42.950Z,101338.16
2023-05-06T14:26:44.338Z,101273.78
2023-05-06T14:31:47.105Z,101246.88
2023-05-06T14:36:50.005Z,101333.56
2023-05-06T14:41:48.500Z,101258.59
2023-05-06T14:46:55.591Z,101323.81
2023-05-06T14:51:53.774Z,101237.28
2023-05-06T14:57:02.590Z,101314.78
2023-05-06T15:02:00.005Z,101319.03
2023-05-06T15:07:00.604Z,101247.03
2023-05-06T15:12:01.343Z,101258.19
2023-05-06T15:17:06.740Z,101250.84
2023-05-06T15:22:04.785Z,101244.09
2023-05-06T15:27:02.418Z,101304.69
2023-05-06T15:31:59.589Z,101316.81
2023-05-06T15:37:01.117Z,101296.53
2023-05-06T15:41:59.454Z,101282.56
2023-05-06T15:46:57.800Z,101327.38
2023-05-06T15:52:06.954Z,101234.38
2023-05-06T15:57:14.874Z,101320.78
2023-05-06T16:02:26.351Z,101331.06
2023-05-06T16:07:25.938Z,101256.47
2023-05-06T16:12:26.745Z,101324.03
2023-05-06T16:17:27.739Z,101257.31
2023-05-06T16:22:30.943Z,101329.66
2023-05-06T16:27:33.185Z,101325.56
2023-05-06T16:32:36.658Z,101284.94
2023-05-06T16:37:34.713Z,101338.53
2023-05-06T16:42:54.440Z,101303.66
2023-05-06T16:47:55.068Z,101331.00
2023-05-06T16:53:00.320Z,101337.22
2023-05-06T16:58:05.473Z,101257.88
2023-05-06T17:03:03.198Z,101272.81
2023-05-06T17:08:03.610Z,101246.50
2023-05-06T17:13:12.068Z,101322.22
2023-05-06T17:18:09.286Z,101331.66
2023-05-06T17:23:09.634Z,101354.25
2023-05-06T17:28:15.187Z,101359.94
2023-05-06T17:33:13.317Z,101281.59
2023-05-06T17:38:18.471Z,101370.16
2023-05-06T17:43:17.755Z,101297.94
2023-05-06T17:48:15.062Z,101349.63
2023-05-06T17:53:12.346Z,101326.66
2023-05-06T17:58:12.809Z,101325.00
2023-05-06T18:03:14.482Z,101388.19
2023-05-06T18:08:43.243Z,101390.00
2023-05-06T18:13:53.902Z,101344.63
2023-05-06T18:19:02.256Z,101397.72
2023-05-06T18:24:16.438Z,101363.53
2023-05-06T18:29:14.146Z,101441.34
2023-05-06T18:34:22.250Z,101445.47
2023-05-06T18:39:25.558Z,101423.75
2023-05-06T18:44:22.664Z,101379.09
2023-05-06T18:49:23.586Z,101385.00
2023-05-06T18:54:26.380Z,101426.03
2023-05-06T18:59:28.057Z,101452.94
2023-05-06T19:04:29.573Z,101401.56
2023-05-06T19:09:36.465Z,101435.09
2023-05-06T19:14:36.503Z,101485.88
2023-05-06T19:20:00.248Z,101409.19
2023-05-06T19:25:03.090Z,101498.81
2023-05-06T19:30:15.927Z,101406.16
2023-05-06T19:35:17.049Z,101429.94
2023-05-06T19:40:19.014Z,101461.06
2023-05-06T19:45:21.217Z,101441.56
2023-05-06T19:50:19.281Z,101504.81
2023-05-06T19:55:16.457Z,101439.78
2023-05-06T20:00:17.781Z,101453.78
2023-05-06T20:05:14.840Z,101421.97
2023-05-06T20:10:14.295Z,101462.28
2023-05-06T20:15:12.136Z,101514.34
2023-05-06T20:20:11.173Z,101474.25
2023-05-06T20:25:19.721Z,101452.66
2023-05-06T20:30:16.890Z,101448.16
2023-05-06T20:35:13.984Z,101461.63
2023-05-06T20:40:12.136Z,101453.34
2023-05-06T20:45:13.152Z,101488.47
2023-05-06T20:50:16.429Z,101523.31
2023-05-06T20:55:16.369Z,101466.78
2023-05-06T21:00:15.120Z,101455.22
2023-05-06T21:05:15.207Z,101433.44
2023-05-06T21:10:12.441Z,101464.47
2023-05-06T21:15:15.682Z,101503.31
2023-05-06T21:20:16.248Z,101535.78
2023-05-06T21:25:31.116Z,101449.47
2023-05-06T21:30:30.615Z,101462.78
2023-05-06T21:35:32.219Z,101544.97
2023-05-06T21:40:30.615Z,101508.63
2023-05-06T21:45:33.181Z,101459.44
2023-05-06T21:50:37.971Z,101494.69
2023-05-06T21:55:37.059Z,101550.34
2023-05-06T22:00:40.068Z,101477.53
2023-05-06T22:06:09.865Z,101473.81
2023-05-06T22:18:24.626Z,101476.25
2023-05-06T22:23:28.551Z,101573.88
2023-05-06T22:28:30.293Z,101493.56
2023-05-06T22:33:28.362Z,101513.28
2023-05-06T22:38:25.555Z,101511.78
2023-05-06T22:43:22.851Z,101508.47
2023-05-06T22:48:23.197Z,101575.44
2023-05-06T22:53:20.851Z,101504.34
2023-05-06T22:58:19.071Z,101498.81
2023-05-06T23:03:17.908Z,101510.31
2023-05-06T23:08:15.716Z,101551.28
2023-05-06T23:13:13.526Z,101542.56
2023-05-06T23:18:10.674Z,101534.38
2023-05-06T23:23:10.168Z,101534.59
2023-05-06T23:28:08.895Z,101479.38
2023-05-06T23:33:08.428Z,101535.97
2023-05-06T23:38:05.794Z,101475.84
2023-05-06T23:43:03.991Z,101541.81
2023-05-06T23:48:01.102Z,101486.03
2023-05-06T23:52:59.007Z,101443.91
2023-05-06T23:57:57.837Z,101446.13
